Time;durP1;ratioP1;P1;durP2;ratioP2;P2;SDS_P1;SDS_P2;PMS_P1;PMS_P2;Temp;Humidity;BMP_temperature;BMP_pressure;BME280_temperature;BME280_humidity;BME280_pressure;Samples;Min_cycle;Max_cycle;Signal;HPM_P1;HPM_P2
2022/08/02 00:01:34;;;;;;;5.47;2.28;;;;;;;24.92;44.92;99467.72;5044704;28;20036;-72
2022/08/02 00:04:00;;;;;;;2.47;2.28;;;;;;;24.82;45.20;99479.31;5044361;28;20040;-72
2022/08/02 00:06:25;;;;;;;3.58;2.20;;;;;;;24.79;45.16;99475.22;5043781;28;21037;-73
2022/08/02 00:08:52;;;;;;;3.33;2.38;;;;;;;24.60;45.78;99470.50;5026444;28;20036;-72
2022/08/02 00:11:18;;;;;;;2.90;1.98;;;;;;;24.56;45.58;99466.66;5044058;28;20041;-74
2022/08/02 00:13:44;;;;;;;3.10;2.28;;;;;;;24.62;45.71;99477.28;5026063;28;20036;-73
2022/08/02 00:16:09;;;;;;;3.45;1.88;;;;;;;24.43;46.29;99474.16;5044320;28;20271;-74
2022/08/02 00:18:35;;;;;;;4.28;2.10;;;;;;;24.52;46.10;99478.03;5026536;28;20025;-74
2022/08/02 00:21:00;;;;;;;4.05;2.45;;;;;;;24.48;46.21;99476.91;5025808;28;20067;-72
2022/08/02 00:23:25;;;;;;;3.55;2.03;;;;;;;24.48;46.21;99466.06;5026426;28;20072;-74
2022/08/02 00:25:51;;;;;;;2.97;1.92;;;;;;;24.41;46.42;99467.38;5043805;28;20038;-72
2022/08/02 00:28:16;;;;;;;3.20;2.05;;;;;;;24.44;46.25;99464.97;5043591;28;20315;-74
2022/08/02 00:30:42;;;;;;;3.45;1.92;;;;;;;24.70;45.44;99462.44;5043922;28;20043;-74
2022/08/02 00:33:07;;;;;;;6.22;2.22;;;;;;;24.57;45.88;99474.53;5039994;28;20258;-75
2022/08/02 00:35:36;;;;;;;4.15;1.95;;;;;;;24.55;45.55;99473.16;5043379;28;20319;-74
2022/08/02 00:38:03;;;;;;;2.40;2.20;;;;;;;24.33;46.56;99474.09;5043211;28;20079;-72
2022/08/02 00:40:28;;;;;;;3.22;2.38;;;;;;;23.91;47.64;99455.00;5043692;28;20340;-72
2022/08/02 00:43:09;;;;;;;2.20;2.00;;;;;;;23.84;48.40;99473.31;5043684;28;20029;-72
2022/08/02 00:45:37;;;;;;;3.35;1.80;;;;;;;23.94;48.25;99464.50;5043545;28;20045;-74
2022/08/02 00:48:05;;;;;;;4.60;2.28;;;;;;;23.86;48.00;99471.16;5043218;28;20056;-72
2022/08/02 00:50:31;;;;;;;2.70;2.17;;;;;;;23.84;48.12;99465.19;5043460;28;20041;-74
2022/08/02 00:52:57;;;;;;;2.45;2.03;;;;;;;23.67;48.21;99468.00;5043096;28;20040;-71
2022/08/02 00:55:22;;;;;;;3.88;2.05;;;;;;;23.69;48.59;99465.03;5025564;28;20025;-71
2022/08/02 00:57:48;;;;;;;7.60;2.40;;;;;;;23.79;48.00;99457.03;5043493;28;20292;-72
2022/08/02 01:00:14;;;;;;;4.57;2.20;;;;;;;23.81;47.43;99465.69;5025037;28;20083;-72
2022/08/02 01:02:40;;;;;;;3.17;1.92;;;;;;;23.87;47.34;99451.16;5043188;28;20033;-74
2022/08/02 01:05:06;;;;;;;4.07;2.03;;;;;;;24.11;47.25;99459.78;5042953;28;20045;-74
2022/08/02 01:07:31;;;;;;;5.18;1.95;;;;;;;24.13;46.81;99452.25;5024714;28;20312;-74
2022/08/02 01:09:59;;;;;;;3.58;2.00;;;;;;;24.15;46.98;99461.72;5025462;28;20029;-74
2022/08/02 01:12:24;;;;;;;3.10;2.28;;;;;;;24.19;46.68;99457.44;5042994;28;20040;-72
2022/08/02 01:14:52;;;;;;;5.60;2.10;;;;;;;24.13;46.74;99442.25;5042573;28;20029;-72
2022/08/02 01:17:26;;;;;;;3.45;2.15;;;;;;;24.14;46.69;99441.16;5042713;28;20043;-74
2022/08/02 01:20:09;;;;;;;2.20;2.00;;;;;;;24.18;46.92;99449.56;5042903;28;20093;-72
2022/08/02 01:23:00;;;;;;;2.47;2.00;;;;;;;24.16;46.66;99452.53;5042589;28;20070;-74
2022/08/02 01:25:53;;;;;;;3.05;2.28;;;;;;;23.89;46.07;99443.63;5037338;28;20045;-72
2022/08/02 01:28:38;;;;;;;4.65;2.25;;;;;;;23.94;45.79;99445.56;5042020;28;20037;-74
2022/08/02 01:31:19;;;;;;;4.35;1.95;;;;;;;23.91;45.61;99444.16;5024888;28;20033;-74
2022/08/02 01:33:51;;;;;;;3.50;1.98;;;;;;;23.97;45.63;99445.06;5038167;28;20101;-72
2022/08/02 01:36:19;;;;;;;4.10;2.22;;;;;;;23.92;45.53;99431.47;5024229;28;20164;-74
2022/08/02 01:38:48;;;;;;;7.85;2.30;;;;;;;24.05;45.30;99458.13;5039439;28;20037;-72
2022/08/02 01:41:25;;;;;;;7.88;2.42;;;;;;;23.92;45.33;99437.69;5042714;28;20038;-74
2022/08/02 01:43:55;;;;;;;7.53;2.60;;;;;;;24.10;45.06;99437.34;5042084;28;20076;-72
2022/08/02 01:46:21;;;;;;;3.85;2.08;;;;;;;24.27;44.66;99447.25;5042459;28;20057;-73
2022/08/02 01:48:49;;;;;;;7.05;2.53;;;;;;;24.15;44.79;99450.09;5024605;28;20208;-74
2022/08/02 01:51:17;;;;;;;3.92;2.30;;;;;;;24.12;44.92;99446.00;5024263;28;20060;-72
2022/08/02 01:53:47;;;;;;;5.60;2.42;;;;;;;24.20;44.92;99442.84;5024672;28;20265;-74
2022/08/02 01:56:15;;;;;;;5.45;2.28;;;;;;;24.16;44.76;99441.72;5042459;28;20032;-74
2022/08/02 01:58:42;;;;;;;5.68;2.00;;;;;;;24.13;44.67;99430.59;5041838;28;20064;-72
2022/08/02 02:01:10;;;;;;;2.45;1.70;;;;;;;24.03;44.81;99425.91;5042266;28;20041;-72
2022/08/02 02:03:38;;;;;;;2.83;1.65;;;;;;;23.85;45.15;99416.28;5042222;28;20033;-72
2022/08/02 02:06:08;;;;;;;3.78;1.83;;;;;;;23.93;45.24;99433.09;5023823;28;20041;-76
2022/08/02 02:08:38;;;;;;;2.65;1.55;;;;;;;24.03;44.96;99444.03;5041976;28;20100;-74
2022/08/02 02:11:05;;;;;;;4.00;1.80;;;;;;;24.06;44.95;99438.13;5040814;28;20037;-74
2022/08/02 02:13:32;;;;;;;2.67;1.60;;;;;;;24.00;44.98;99423.72;5042089;28;20100;-72
2022/08/02 02:16:02;;;;;;;2.60;1.88;;;;;;;23.79;45.72;99430.81;5041727;28;20381;-72
2022/08/02 02:18:29;;;;;;;4.00;2.05;;;;;;;23.41;46.00;99393.91;5024461;28;20029;-72
2022/08/02 02:20:55;;;;;;;4.68;2.13;;;;;;;23.74;46.14;99433.47;5041959;28;20051;-74
2022/08/02 02:23:21;;;;;;;3.50;1.70;;;;;;;23.58;46.43;99441.69;5041989;28;20246;-74
2022/08/02 02:25:47;;;;;;;2.85;1.80;;;;;;;23.75;46.13;99439.69;5041878;28;20053;-72
2022/08/02 02:28:21;;;;;;;2.45;1.80;;;;;;;23.93;45.44;99438.50;5024040;28;20326;-74
2022/08/02 02:30:50;;;;;;;3.83;1.85;;;;;;;23.98;45.46;99447.50;5041864;28;20037;-74
2022/08/02 02:33:18;;;;;;;8.18;2.00;;;;;;;23.83;46.41;99440.03;5041871;28;20096;-74
2022/08/02 02:35:46;;;;;;;7.05;2.15;;;;;;;23.83;46.67;99437.34;5041345;28;20061;-71
2022/08/02 02:38:14;;;;;;;2.28;1.90;;;;;;;23.75;46.82;99445.91;5041544;28;20044;-72
2022/08/02 02:40:41;;;;;;;4.60;2.10;;;;;;;23.74;46.56;99444.28;5045260;28;20117;-74
2022/08/02 02:43:08;;;;;;;2.40;1.52;;;;;;;23.63;47.03;99445.25;5027977;28;20032;-74
2022/08/02 02:45:35;;;;;;;3.35;2.35;;;;;;;23.42;47.35;99430.66;5045795;28;20022;-74
2022/08/02 02:48:01;;;;;;;7.55;2.08;;;;;;;23.09;48.32;99431.63;5045687;28;20040;-74
2022/08/02 02:50:29;;;;;;;2.78;2.05;;;;;;;23.06;48.78;99434.03;5027955;28;20309;-72
2022/08/02 02:52:55;;;;;;;2.65;1.90;;;;;;;22.67;49.66;99435.88;5045668;28;20048;-72
2022/08/02 02:55:23;;;;;;;3.10;2.08;;;;;;;22.76;49.35;99428.97;5045781;28;20037;-74
2022/08/02 02:57:49;;;;;;;3.63;1.88;;;;;;;22.51;50.20;99427.56;5022909;28;20260;-74
2022/08/02 03:00:14;;;;;;;6.53;1.85;;;;;;;22.76;49.73;99440.59;5027685;28;20030;-74
2022/08/02 03:02:42;;;;;;;3.63;1.90;;;;;;;22.82;49.55;99445.03;5031846;28;20045;-74
2022/08/02 03:05:09;;;;;;;3.95;1.90;;;;;;;22.89;49.34;99440.28;5029069;28;20345;-73
2022/08/02 03:07:35;;;;;;;2.30;1.80;;;;;;;22.77;49.38;99444.91;5027977;28;20033;-75
2022/08/02 03:10:06;;;;;;;4.63;2.00;;;;;;;22.97;48.74;99438.22;5029045;28;20350;-72
2022/08/02 03:12:33;;;;;;;6.22;2.30;;;;;;;23.00;48.50;99438.53;5022259;28;20036;-74
2022/08/02 03:15:03;;;;;;;6.85;1.85;;;;;;;22.93;48.58;99437.91;5029555;28;20021;-72
2022/08/02 03:17:44;;;;;;;4.38;1.77;;;;;;;22.75;48.38;99420.06;5030452;28;20329;-72
2022/08/02 03:20:15;;;;;;;5.53;2.10;;;;;;;23.09;47.90;99441.63;5029800;28;20045;-72
2022/08/02 03:22:41;;;;;;;2.45;1.65;;;;;;;23.16;47.86;99456.56;5030061;28;20029;-72
2022/08/02 03:25:08;;;;;;;2.13;1.73;;;;;;;23.01;48.01;99433.97;5027591;28;20324;-74
2022/08/02 03:27:33;;;;;;;5.97;1.98;;;;;;;22.93;48.22;99429.81;5030931;28;20037;-72
2022/08/02 03:29:59;;;;;;;7.88;2.10;;;;;;;23.11;48.16;99455.69;5027980;28;20014;-74
2022/08/02 03:32:25;;;;;;;4.53;1.95;;;;;;;23.10;48.36;99454.88;5013072;28;20040;-74
2022/08/02 03:34:51;;;;;;;5.25;2.22;;;;;;;23.07;48.30;99458.06;5027882;28;20030;-74
2022/08/02 03:37:17;;;;;;;5.47;2.33;;;;;;;22.94;48.58;99463.84;5028320;28;20091;-74
2022/08/02 03:39:43;;;;;;;7.40;2.45;;;;;;;22.89;48.70;99474.56;5009998;28;20053;-72
2022/08/02 03:42:09;;;;;;;8.80;2.45;;;;;;;22.91;48.75;99472.44;5027340;28;20279;-72
2022/08/02 03:44:36;;;;;;;4.25;2.30;;;;;;;22.81;48.92;99470.38;5030043;28;20038;-73
2022/08/02 03:47:02;;;;;;;4.57;2.60;;;;;;;23.11;48.24;99478.13;5026708;28;20053;-72
2022/08/02 03:49:30;;;;;;;8.30;2.20;;;;;;;23.33;47.63;99474.59;5013232;28;20017;-74
2022/08/02 03:51:56;;;;;;;3.95;1.88;;;;;;;23.17;47.65;99476.28;5027942;28;20049;-74
2022/08/02 03:54:22;;;;;;;6.32;2.30;;;;;;;23.09;48.28;99482.94;5030765;28;20091;-74
2022/08/02 03:56:48;;;;;;;3.05;2.05;;;;;;;22.99;48.56;99469.31;5021911;28;20029;-74
2022/08/02 03:59:13;;;;;;;4.32;2.50;;;;;;;22.95;48.71;99475.47;5027119;28;20080;-74
2022/08/02 04:01:40;;;;;;;5.60;2.33;;;;;;;22.84;49.33;99491.47;5028854;28;20057;-74
2022/08/02 04:04:07;;;;;;;12.95;2.00;;;;;;;22.75;49.15;99476.75;5029637;28;20053;-71
2022/08/02 04:06:33;;;;;;;10.10;2.47;;;;;;;23.09;48.52;99487.53;5029370;28;20030;-72
2022/08/02 04:08:58;;;;;;;9.85;2.42;;;;;;;23.05;48.71;99492.63;5035620;28;20303;-74
2022/08/02 04:11:29;;;;;;;8.52;1.90;;;;;;;23.20;48.55;99487.41;5032648;28;20044;-73
2022/08/02 04:13:55;;;;;;;5.50;2.30;;;;;;;23.12;48.48;99501.34;5027282;28;20033;-72
2022/08/02 04:16:27;;;;;;;6.57;2.40;;;;;;;23.44;47.57;99504.19;5036247;28;20064;-72
2022/08/02 04:18:56;;;;;;;7.10;2.10;;;;;;;23.64;47.03;99509.06;5029835;28;20030;-72
2022/08/02 04:21:26;;;;;;;5.45;2.33;;;;;;;23.80;46.53;99512.75;5027927;28;20037;-75
2022/08/02 04:23:52;;;;;;;4.43;2.28;;;;;;;23.93;46.58;99498.84;5031670;28;20355;-75
2022/08/02 04:26:19;;;;;;;5.03;1.83;;;;;;;24.12;45.91;99510.94;5027244;28;20115;-74
2022/08/02 04:29:22;;;;;;;8.93;3.33;;;;;;;24.00;46.38;99512.97;5208709;22;20349;-71
2022/08/02 04:31:49;;;;;;;9.90;5.70;;;;;;;23.95;46.41;99510.22;5067221;28;20033;-72
2022/08/02 04:34:14;;;;;;;7.07;4.07;;;;;;;23.87;46.59;99514.16;5070317;28;20208;-72
2022/08/02 04:36:40;;;;;;;7.55;2.88;;;;;;;23.78;47.21;99510.28;5063264;28;20020;-72
2022/08/02 04:39:05;;;;;;;6.85;2.70;;;;;;;23.83;46.86;99509.53;5068647;28;20068;-72
2022/08/02 04:41:43;;;;;;;15.23;2.70;;;;;;;23.94;47.04;99507.78;5062487;28;20340;-72
2022/08/02 04:44:09;;;;;;;5.30;3.03;;;;;;;24.01;46.67;99511.91;5063701;28;20209;-72
2022/08/02 04:46:38;;;;;;;5.28;2.47;;;;;;;24.06;46.26;99503.84;5065545;28;20060;-72
2022/08/02 04:49:03;;;;;;;7.35;2.22;;;;;;;23.89;46.49;99492.28;5063564;28;20218;-72
2022/08/02 04:51:29;;;;;;;4.97;2.25;;;;;;;24.08;45.89;99500.88;5063496;28;20017;-72
2022/08/02 04:53:54;;;;;;;8.95;2.70;;;;;;;24.26;45.50;99505.91;5063616;28;20063;-72
2022/08/02 04:56:20;;;;;;;6.22;2.28;;;;;;;24.21;45.12;99505.88;5063329;28;20021;-72
2022/08/02 04:58:45;;;;;;;5.75;2.38;;;;;;;24.46;45.42;99511.53;5063228;28;20209;-72
2022/08/02 05:01:10;;;;;;;5.72;2.03;;;;;;;24.74;43.67;99510.38;5063419;28;20043;-72
2022/08/02 05:03:36;;;;;;;7.60;2.80;;;;;;;24.90;43.43;99515.91;5065731;28;20025;-72
2022/08/02 05:06:02;;;;;;;6.88;2.38;;;;;;;25.17;42.83;99519.38;5061544;28;20017;-72
2022/08/02 05:08:28;;;;;;;8.65;2.38;;;;;;;25.03;42.99;99512.78;5061871;28;20033;-72
2022/08/02 05:10:53;;;;;;;6.40;2.00;;;;;;;25.07;43.12;99520.13;5061410;28;20079;-72
2022/08/02 05:13:19;;;;;;;8.27;2.42;;;;;;;25.24;42.64;99516.44;5061285;28;20218;-72
2022/08/02 05:15:48;;;;;;;5.88;2.88;;;;;;;25.26;42.26;99511.56;5061197;28;20021;-72
2022/08/02 05:18:13;;;;;;;6.55;2.08;;;;;;;25.67;41.81;99518.81;5061020;28;20041;-72
2022/08/02 05:20:38;;;;;;;4.75;2.55;;;;;;;25.81;40.93;99516.41;5061094;28;20032;-73
2022/08/02 05:23:04;;;;;;;10.25;2.05;;;;;;;25.99;41.44;99517.81;5058503;28;20214;-72
2022/08/02 05:25:29;;;;;;;9.82;2.30;;;;;;;26.36;40.21;99521.16;5059676;28;20791;-72
2022/08/02 05:27:55;;;;;;;4.97;2.03;;;;;;;26.78;39.30;99519.25;5058829;28;20055;-72
2022/08/02 05:30:20;;;;;;;9.90;1.90;;;;;;;26.95;38.99;99517.84;5059768;28;20045;-73
2022/08/02 05:32:49;;;;;;;6.47;2.28;;;;;;;27.11;37.93;99518.69;5060591;28;21050;-72
2022/08/02 05:35:20;;;;;;;9.07;2.20;;;;;;;27.39;36.81;99519.97;5058190;28;20288;-72
2022/08/02 05:37:46;;;;;;;4.47;1.80;;;;;;;27.28;35.92;99521.09;5057943;28;20437;-72
2022/08/02 05:40:13;;;;;;;4.57;2.15;;;;;;;27.44;35.94;99525.38;5059368;28;20028;-72
2022/08/02 05:42:39;;;;;;;3.03;1.80;;;;;;;27.27;36.33;99524.91;5059723;28;20032;-72
2022/08/02 05:45:05;;;;;;;4.00;2.67;;;;;;;27.31;36.25;99523.25;5057972;28;20036;-72
2022/08/02 05:47:31;;;;;;;6.28;2.25;;;;;;;27.55;36.20;99526.16;5060741;28;20063;-74
2022/08/02 05:49:56;;;;;;;11.48;2.20;;;;;;;27.77;36.17;99517.66;5061751;28;20040;-73
2022/08/02 05:52:25;;;;;;;9.93;2.63;;;;;;;27.47;36.09;99515.84;5060587;28;20238;-73
2022/08/02 05:55:06;;;;;;;2.88;1.92;;;;;;;26.83;36.20;99411.38;5060333;28;20079;-74
2022/08/02 05:57:55;;;;;;;3.40;2.15;;;;;;;28.01;35.37;99506.88;5060601;28;20048;-73
2022/08/02 06:00:21;;;;;;;6.13;2.10;;;;;;;28.33;35.24;99526.31;5060092;28;20037;-75
2022/08/02 06:03:17;;;;;;;3.67;2.15;;;;;;;28.68;34.31;99530.66;5059779;28;20055;-74
2022/08/02 06:05:51;;;;;;;6.13;1.63;;;;;;;28.52;34.56;99529.97;5060071;28;20041;-72
2022/08/02 06:08:19;;;;;;;6.15;2.28;;;;;;;28.60;34.42;99518.47;5059889;28;20053;-72
2022/08/02 06:10:45;;;;;;;5.10;1.77;;;;;;;28.90;33.99;99531.03;5060621;28;20147;-73
2022/08/02 06:13:12;;;;;;;3.95;1.52;;;;;;;28.91;32.82;99531.84;5060092;28;20635;-73
2022/08/02 06:15:39;;;;;;;2.85;1.90;;;;;;;28.73;33.22;99536.06;5060209;28;20225;-72
2022/08/02 06:18:06;;;;;;;3.03;1.60;;;;;;;28.83;32.96;99537.88;5059844;28;20033;-72
2022/08/02 06:20:35;;;;;;;5.00;2.22;;;;;;;29.05;32.83;99543.69;5060470;28;20028;-72
2022/08/02 06:23:17;;;;;;;;;;;;;;;;;;;;;
2022/08/02 06:25:45;;;;;;;8.70;1.92;;;;;;;29.38;32.03;99547.44;5060011;28;20052;-73
2022/08/02 06:28:14;;;;;;;3.72;2.10;;;;;;;28.87;32.53;99544.41;5059771;28;20056;-73
2022/08/02 06:30:41;;;;;;;8.45;2.55;;;;;;;29.21;32.47;99547.91;5058530;28;20423;-73
2022/08/02 06:33:07;;;;;;;4.25;1.60;;;;;;;29.30;32.26;99548.06;5058737;28;20021;-73
2022/08/02 06:35:54;;;;;;;2.13;1.70;;;;;;;29.64;32.03;99556.16;5060057;28;20025;-74
2022/08/02 06:38:26;;;;;;;4.45;1.80;;;;;;;29.77;31.80;99549.16;5058328;28;20052;-73
2022/08/02 06:41:09;;;;;;;6.20;1.90;;;;;;;29.23;31.96;99550.34;5060063;28;20067;-73
2022/08/02 06:43:53;;;;;;;4.47;1.90;;;;;;;29.67;31.71;99555.56;5059615;28;20037;-73
2022/08/02 06:46:20;;;;;;;4.20;1.90;;;;;;;29.86;30.57;99539.22;5059169;28;20059;-74
2022/08/02 06:48:46;;;;;;;5.28;2.22;;;;;;;29.95;30.94;99548.38;5060538;28;20191;-74
2022/08/02 06:51:11;;;;;;;4.60;2.20;;;;;;;30.11;30.85;99549.81;5060637;28;20059;-74
2022/08/02 06:53:37;;;;;;;3.20;1.67;;;;;;;30.35;30.39;99551.66;5060357;28;20024;-73
2022/08/02 06:56:03;;;;;;;3.03;1.73;;;;;;;30.42;30.62;99541.19;5059221;28;20330;-73
2022/08/02 06:58:28;;;;;;;3.28;1.65;;;;;;;30.80;29.91;99539.19;5075928;28;20044;-74
2022/08/02 07:00:54;;;;;;;3.35;1.50;;;;;;;30.66;30.04;99539.16;5060072;28;20025;-74
2022/08/02 07:03:20;;;;;;;3.95;1.50;;;;;;;30.67;30.71;99537.25;5060353;28;20108;-73
2022/08/02 07:05:47;;;;;;;2.72;1.67;;;;;;;30.90;30.05;99539.00;5060339;28;20057;-73
2022/08/02 07:08:15;;;;;;;4.18;1.60;;;;;;;31.08;30.13;99538.13;5060104;28;20032;-73
2022/08/02 07:10:41;;;;;;;3.80;1.38;;;;;;;31.26;29.48;99536.47;5060476;28;20329;-73
2022/08/02 07:13:07;;;;;;;4.47;1.20;;;;;;;31.36;29.45;99538.19;5060295;28;20028;-73
2022/08/02 07:15:32;;;;;;;4.88;1.25;;;;;;;31.51;29.31;99534.34;5060372;28;20061;-74
2022/08/02 07:17:58;;;;;;;1.58;1.48;;;;;;;31.67;29.00;99533.72;5059861;28;20062;-74
2022/08/02 07:20:23;;;;;;;3.35;1.30;;;;;;;31.92;28.59;99528.81;5060263;28;20234;-73
2022/08/02 07:22:49;;;;;;;2.63;1.00;;;;;;;32.13;28.07;99518.22;5060301;28;20032;-73
2022/08/02 07:25:14;;;;;;;2.67;1.17;;;;;;;31.98;27.73;99533.88;5060715;28;20040;-73
2022/08/02 07:27:40;;;;;;;1.52;1.10;;;;;;;32.26;27.65;99533.84;5063894;28;20025;-74
2022/08/02 07:30:06;;;;;;;3.50;0.98;;;;;;;32.74;27.58;99527.72;5063600;28;20036;-73
2022/08/02 07:32:32;;;;;;;1.70;1.02;;;;;;;32.66;26.99;99527.34;5063674;28;20029;-73
2022/08/02 07:34:59;;;;;;;2.08;1.05;;;;;;;32.31;27.40;99528.25;5064168;28;20095;-74
2022/08/02 07:37:29;;;;;;;2.05;1.05;;;;;;;32.48;27.83;99530.28;5064388;28;21162;-73
2022/08/02 07:39:54;;;;;;;2.17;0.90;;;;;;;32.27;26.71;99525.31;5063414;28;20052;-74
2022/08/02 07:42:20;;;;;;;3.28;0.98;;;;;;;32.20;28.16;99530.34;5063842;28;20075;-74
2022/08/02 07:44:46;;;;;;;1.65;0.88;;;;;;;32.55;26.74;99526.00;5063898;28;20036;-73
2022/08/02 07:47:11;;;;;;;2.75;0.90;;;;;;;33.14;26.38;99515.69;5063152;28;20053;-74
2022/08/02 07:49:37;;;;;;;1.75;0.98;;;;;;;33.06;26.16;99532.09;5063489;28;20063;-74
2022/08/02 07:52:03;;;;;;;0.95;0.88;;;;;;;33.07;26.68;99534.53;5063634;28;20066;-74
2022/08/02 07:54:28;;;;;;;8.27;1.20;;;;;;;33.10;26.25;99536.66;5063207;28;20299;-74
2022/08/02 07:56:54;;;;;;;1.65;0.70;;;;;;;33.29;25.68;99533.66;5063526;28;20099;-71
2022/08/02 07:59:20;;;;;;;1.52;0.82;;;;;;;33.60;25.13;99537.19;5063418;28;20037;-73
2022/08/02 08:01:48;;;;;;;0.82;0.70;;;;;;;33.69;25.15;99522.69;5063086;28;20057;-74
2022/08/02 08:04:14;;;;;;;1.10;0.60;;;;;;;33.82;24.74;99530.00;5063205;28;20100;-73
2022/08/02 08:06:39;;;;;;;0.95;0.80;;;;;;;33.91;26.13;99528.06;5063210;28;20047;-73
2022/08/02 08:09:05;;;;;;;0.80;0.80;;;;;;;33.57;25.72;99529.59;5063047;28;20060;-74
2022/08/02 08:11:30;;;;;;;3.25;0.82;;;;;;;33.39;25.68;99536.16;5063231;28;20025;-73
2022/08/02 08:13:56;;;;;;;1.30;0.60;;;;;;;33.13;25.73;99537.94;5063559;28;20468;-74
2022/08/02 08:16:21;;;;;;;2.95;0.70;;;;;;;33.30;25.97;99538.06;5062520;28;20256;-74
2022/08/02 08:18:47;;;;;;;0.75;0.75;;;;;;;33.04;25.69;99539.84;5063204;28;20025;-73
2022/08/02 08:21:12;;;;;;;1.92;0.70;;;;;;;32.73;26.08;99537.88;5063190;28;20226;-74
2022/08/02 08:23:37;;;;;;;2.70;0.73;;;;;;;32.94;26.35;99541.72;5062775;28;20017;-74
2022/08/02 08:26:04;;;;;;;3.33;0.77;;;;;;;33.07;25.77;99539.22;5063064;28;20075;-73
2022/08/02 08:28:29;;;;;;;1.17;0.70;;;;;;;32.82;26.50;99548.94;5062714;28;20029;-73
2022/08/02 08:30:55;;;;;;;2.35;0.80;;;;;;;32.63;26.60;99540.88;5062260;28;20048;-73
2022/08/02 08:33:20;;;;;;;1.23;0.60;;;;;;;32.39;26.95;99541.19;5062776;28;20064;-74
2022/08/02 08:35:46;;;;;;;0.88;0.70;;;;;;;32.01;28.39;99544.22;5062677;28;20100;-73
2022/08/02 08:38:11;;;;;;;2.53;0.68;;;;;;;31.94;28.27;99535.63;5061182;28;20218;-73
2022/08/02 08:40:37;;;;;;;0.85;0.60;;;;;;;32.12;28.03;99538.50;5062540;28;20033;-74
2022/08/02 08:43:04;;;;;;;2.50;0.60;;;;;;;31.98;28.59;99536.63;5078434;28;20064;-73
2022/08/02 08:45:29;;;;;;;1.52;0.70;;;;;;;32.04;27.83;99542.78;5062427;28;20276;-74
2022/08/02 08:48:00;;;;;;;1.95;0.75;;;;;;;32.05;28.26;99547.16;5062242;28;20044;-74
2022/08/02 08:50:31;;;;;;;1.35;0.70;;;;;;;32.30;27.15;99540.31;5062559;28;20037;-73
2022/08/02 08:53:05;;;;;;;1.83;0.60;;;;;;;32.70;26.85;99530.28;5062404;28;20028;-73
2022/08/02 08:55:33;;;;;;;0.70;0.60;;;;;;;32.89;26.46;99530.09;5061965;28;20037;-73
2022/08/02 08:58:00;;;;;;;2.53;0.60;;;;;;;33.20;26.79;99530.88;5062252;28;20025;-73
2022/08/02 09:00:26;;;;;;;0.60;0.47;;;;;;;32.98;24.69;99522.72;5062244;28;20053;-73
2022/08/02 09:02:52;;;;;;;0.85;0.60;;;;;;;32.65;25.50;99531.22;5061940;28;20037;-73
2022/08/02 09:05:17;;;;;;;0.50;0.50;;;;;;;32.62;25.35;99526.38;5062123;28;20258;-74
2022/08/02 09:07:47;;;;;;;0.65;0.40;;;;;;;32.35;25.84;99532.78;5062046;28;20040;-73
2022/08/02 09:10:35;;;;;;;2.17;0.50;;;;;;;32.49;25.72;99519.03;5061637;28;20040;-74
2022/08/02 09:13:28;;;;;;;0.40;0.40;;;;;;;32.61;26.48;99526.69;5053720;28;20040;-74
2022/08/02 09:15:55;;;;;;;1.95;0.60;;;;;;;31.94;27.45;99530.13;5061669;28;20338;-74
2022/08/02 09:18:38;;;;;;;0.63;0.60;;;;;;;31.40;27.46;99526.34;5060986;28;20033;-74
2022/08/02 09:21:09;;;;;;;1.38;0.60;;;;;;;31.64;27.73;99517.09;5077416;28;20036;-74
2022/08/02 09:23:46;;;;;;;1.75;0.60;;;;;;;31.90;27.59;99514.63;5061378;28;20037;-74
2022/08/02 09:26:20;;;;;;;0.60;0.60;;;;;;;31.59;27.80;99519.94;5061855;28;20033;-73
2022/08/02 09:28:51;;;;;;;2.67;0.90;;;;;;;31.37;29.27;99509.72;5061721;28;20086;-74
2022/08/02 09:31:19;;;;;;;1.25;0.90;;;;;;;31.66;29.06;99512.13;5061125;28;20051;-74
2022/08/02 09:33:52;;;;;;;5.80;1.02;;;;;;;31.69;28.65;99515.09;5061669;28;20049;-74
2022/08/02 09:36:17;;;;;;;2.08;1.00;;;;;;;31.70;28.38;99505.75;5076958;28;20104;-74
2022/08/02 09:39:02;;;;;;;2.88;1.00;;;;;;;31.64;27.93;99509.69;5061070;28;20110;-74
2022/08/02 09:41:33;;;;;;;1.48;1.35;;;;;;;31.87;27.39;99505.09;5061804;28;20033;-73
2022/08/02 09:44:00;;;;;;;2.28;1.35;;;;;;;31.67;27.58;99503.59;5076439;28;20024;-74
2022/08/02 09:46:29;;;;;;;2.35;1.33;;;;;;;31.64;28.23;99501.47;5076244;28;20024;-74
2022/08/02 09:48:55;;;;;;;2.72;1.00;;;;;;;31.73;28.24;99510.63;5060725;28;20029;-74
2022/08/02 09:51:24;;;;;;;2.78;1.17;;;;;;;31.80;28.65;99504.72;5061387;28;20276;-74
2022/08/02 09:53:55;;;;;;;1.98;1.15;;;;;;;31.51;29.11;99507.78;5061080;28;20028;-74
2022/08/02 09:56:22;;;;;;;2.40;1.20;;;;;;;31.23;29.88;99507.00;5059933;28;20231;-73
2022/08/02 09:58:50;;;;;;;2.72;1.27;;;;;;;31.28;30.22;99509.63;5060156;28;20036;-74
2022/08/02 10:01:16;;;;;;;1.67;1.20;;;;;;;30.81;29.34;99508.00;5060500;28;20305;-73
2022/08/02 10:03:56;;;;;;;2.42;1.13;;;;;;;30.80;30.27;99495.47;5061219;28;20056;-73
2022/08/02 10:06:22;;;;;;;2.28;1.10;;;;;;;31.15;29.60;99494.00;5060447;28;20213;-74
2022/08/02 10:08:48;;;;;;;1.92;0.98;;;;;;;31.10;30.61;99505.00;5060685;28;20076;-73
2022/08/02 10:11:14;;;;;;;1.05;0.95;;;;;;;30.56;30.10;99502.97;5059689;28;20032;-73
2022/08/02 10:13:41;;;;;;;1.50;1.17;;;;;;;30.87;30.05;99500.53;5061251;28;20248;-73
2022/08/02 10:16:07;;;;;;;2.33;0.95;;;;;;;30.96;29.86;99499.53;5060403;28;20048;-73
2022/08/02 10:18:34;;;;;;;1.73;0.90;;;;;;;31.01;29.20;99498.63;5061070;28;20033;-74
2022/08/02 10:21:01;;;;;;;9.23;1.35;;;;;;;30.91;30.03;99491.41;5061032;28;20029;-74
2022/08/02 10:23:32;;;;;;;2.78;0.90;;;;;;;31.03;29.80;99493.66;5060515;28;20084;-74
2022/08/02 10:25:59;;;;;;;3.28;1.20;;;;;;;31.14;29.85;99489.59;5060097;28;20044;-74
2022/08/02 10:28:30;;;;;;;1.13;0.98;;;;;;;31.22;28.99;99493.63;5060518;28;20111;-74
2022/08/02 10:30:58;;;;;;;1.00;0.85;;;;;;;31.25;29.49;99482.88;5060297;28;20029;-74
2022/08/02 10:33:26;;;;;;;1.90;1.00;;;;;;;31.17;29.58;99486.28;5076369;28;20036;-73
2022/08/02 10:35:56;;;;;;;3.50;1.05;;;;;;;30.83;30.50;99485.84;5060691;28;20104;-73
2022/08/02 10:38:23;;;;;;;0.88;0.88;;;;;;;30.82;32.29;99482.28;5060277;28;20092;-73
2022/08/02 10:40:52;;;;;;;2.47;0.93;;;;;;;30.96;30.91;99493.25;5076266;28;20111;-73
2022/08/02 10:43:41;;;;;;;2.25;0.73;;;;;;;30.74;29.53;99488.47;5060664;28;20047;-74
2022/08/02 10:46:30;;;;;;;1.38;0.80;;;;;;;30.86;29.49;99487.97;5051117;28;20091;-73
2022/08/02 10:49:01;;;;;;;1.42;0.68;;;;;;;30.94;30.17;99493.56;5060238;28;20039;-74
2022/08/02 10:51:51;;;;;;;3.08;0.80;;;;;;;30.62;30.37;99491.69;5060696;28;20052;-73
2022/08/02 10:54:20;;;;;;;2.72;0.98;;;;;;;30.95;29.45;99484.25;5059746;28;20033;-74
2022/08/02 10:56:47;;;;;;;1.77;0.80;;;;;;;31.08;29.64;99488.09;5060843;28;20040;-74
2022/08/02 10:59:35;;;;;;;1.65;0.80;;;;;;;31.29;30.01;99480.34;5060439;28;20082;-73
2022/08/02 11:02:03;;;;;;;1.30;0.90;;;;;;;30.87;29.30;99481.41;5063922;28;20032;-73
2022/08/02 11:04:42;;;;;;;3.40;0.88;;;;;;;30.97;30.25;99470.25;5064482;28;20318;-73
2022/08/02 11:07:13;;;;;;;2.60;0.77;;;;;;;31.19;29.66;99478.59;5064258;28;20039;-74
2022/08/02 11:09:40;;;;;;;2.63;1.00;;;;;;;31.34;29.65;99466.56;5064376;28;20379;-74
2022/08/02 11:12:12;;;;;;;2.78;0.90;;;;;;;31.38;29.44;99470.31;5079984;28;20684;-73
2022/08/02 11:14:40;;;;;;;1.45;0.95;;;;;;;31.48;29.48;99461.06;5064326;28;20051;-73
2022/08/02 11:17:14;;;;;;;1.67;0.80;;;;;;;31.56;31.12;99468.56;5064183;28;20040;-73
2022/08/02 11:20:07;;;;;;;2.00;0.80;;;;;;;31.45;28.88;99462.50;5064465;28;20218;-73
2022/08/02 11:22:32;;;;;;;0.90;0.70;;;;;;;31.44;29.08;99447.19;5062826;28;20043;-73
2022/08/02 11:25:20;;;;;;;2.80;1.00;;;;;;;31.46;29.90;99455.09;5064026;28;20029;-74
2022/08/02 11:27:46;;;;;;;3.97;0.82;;;;;;;31.26;28.85;99450.88;5062840;28;20037;-73
2022/08/02 11:30:13;;;;;;;1.95;0.85;;;;;;;31.11;29.04;99439.06;5063862;28;20084;-73
2022/08/02 11:32:38;;;;;;;1.17;1.08;;;;;;;31.37;30.42;99446.81;5063998;28;20032;-74
2022/08/02 11:35:04;;;;;;;5.18;0.98;;;;;;;31.54;28.61;99441.50;5063652;28;20200;-73
2022/08/02 11:37:36;;;;;;;3.42;0.90;;;;;;;31.55;28.70;99436.84;5063711;28;20048;-74
2022/08/02 11:40:04;;;;;;;3.08;1.00;;;;;;;31.66;28.93;99444.50;5063705;28;20096;-74
2022/08/02 11:42:34;;;;;;;1.48;0.90;;;;;;;31.67;29.47;99448.06;5063966;28;20402;-74